Time;durP1;ratioP1;P1;durP2;ratioP2;P2;SDS_P1;SDS_P2;PMS_P1;PMS_P2;Temp;Humidity;BMP_temperature;BMP_pressure;BME280_temperature;BME280_humidity;BME280_pressure;Samples;Min_cycle;Max_cycle;Signal;HPM_P1;HPM_P2
2023/01/24 00:00:07;;;;;;;45.35;18.80;;;2.90;99.90;;;;;;5106317;27;20485;-76
2023/01/24 00:02:33;;;;;;;42.63;18.58;;;2.80;99.90;;;;;;5108437;27;20027;-76
2023/01/24 00:04:58;;;;;;;45.63;18.42;;;2.90;99.90;;;;;;5105253;27;20043;-76
2023/01/24 00:07:24;;;;;;;43.20;18.85;;;2.90;99.90;;;;;;5099233;27;20082;-77
2023/01/24 00:09:49;;;;;;;41.97;18.67;;;2.80;99.90;;;;;;5106419;27;20067;-77
2023/01/24 00:12:15;;;;;;;46.25;19.08;;;2.90;99.90;;;;;;5089981;27;20088;-75
2023/01/24 00:14:41;;;;;;;40.45;18.58;;;2.90;99.90;;;;;;5088668;27;20066;-76
2023/01/24 00:17:07;;;;;;;45.30;18.75;;;2.80;99.90;;;;;;5110532;27;20045;-77
2023/01/24 00:19:33;;;;;;;41.72;18.35;;;2.90;99.90;;;;;;5105550;27;20469;-77
2023/01/24 00:22:00;;;;;;;45.10;19.17;;;2.80;99.90;;;;;;5108342;27;20139;-77
2023/01/24 00:24:26;;;;;;;43.88;19.13;;;2.90;99.90;;;;;;5104583;27;20458;-77
2023/01/24 00:26:52;;;;;;;43.45;18.77;;;2.90;99.90;;;;;;5108450;27;20048;-77
2023/01/24 00:29:17;;;;;;;43.30;18.67;;;2.80;99.90;;;;;;5106743;27;20035;-77
2023/01/24 00:31:44;;;;;;;43.28;18.85;;;2.90;99.90;;;;;;5106715;27;20452;-77
2023/01/24 00:34:09;;;;;;;49.20;18.95;;;2.80;99.90;;;;;;5106576;27;20043;-77
2023/01/24 00:36:35;;;;;;;45.67;18.67;;;2.80;99.90;;;;;;5109304;27;20043;-77
2023/01/24 00:39:00;;;;;;;43.35;18.40;;;2.80;99.90;;;;;;5104293;27;20131;-77
2023/01/24 00:41:26;;;;;;;42.40;18.15;;;2.90;99.90;;;;;;5105627;27;20065;-77
2023/01/24 00:43:52;;;;;;;44.97;18.52;;;2.90;99.90;;;;;;5107367;27;20046;-77
2023/01/24 00:46:17;;;;;;;46.60;19.33;;;2.90;99.90;;;;;;5106918;27;20035;-78
2023/01/24 00:48:43;;;;;;;43.78;18.25;;;2.90;99.90;;;;;;5106046;27;20162;-78
2023/01/24 00:51:09;;;;;;;48.60;19.33;;;2.90;99.90;;;;;;5108178;27;20508;-77
2023/01/24 00:53:34;;;;;;;43.53;17.95;;;2.90;99.90;;;;;;5107675;27;20035;-75
2023/01/24 00:56:00;;;;;;;45.58;19.10;;;2.80;99.90;;;;;;5107086;27;20046;-76
2023/01/24 00:58:26;;;;;;;47.17;19.17;;;2.90;99.90;;;;;;5105624;27;20462;-77
2023/01/24 01:00:55;;;;;;;43.03;18.67;;;2.80;99.90;;;;;;5103873;27;20054;-77
2023/01/24 01:03:21;;;;;;;43.33;18.40;;;2.80;99.90;;;;;;5107123;27;20384;-77
2023/01/24 01:05:47;;;;;;;47.75;19.33;;;2.80;99.90;;;;;;5107375;27;20031;-77
2023/01/24 01:08:12;;;;;;;44.88;18.38;;;2.80;99.90;;;;;;5107387;27;20160;-77
2023/01/24 01:10:39;;;;;;;42.65;17.73;;;2.80;99.90;;;;;;5102695;27;20544;-78
2023/01/24 01:13:05;;;;;;;46.53;19.33;;;2.90;99.90;;;;;;5104910;27;20256;-77
2023/01/24 01:15:31;;;;;;;44.05;19.30;;;2.80;99.90;;;;;;5102143;27;20042;-78
2023/01/24 01:17:58;;;;;;;42.15;17.50;;;2.80;99.90;;;;;;5091862;27;20051;-78
2023/01/24 01:20:24;;;;;;;45.95;18.85;;;2.80;99.90;;;;;;5103182;27;20187;-77
2023/01/24 01:22:49;;;;;;;44.38;18.73;;;2.80;99.90;;;;;;5107685;27;20066;-77
2023/01/24 01:25:15;;;;;;;46.10;18.10;;;2.80;99.90;;;;;;5120751;27;20068;-78
2023/01/24 01:27:41;;;;;;;41.97;17.70;;;2.80;99.90;;;;;;5109102;27;20097;-77
2023/01/24 01:30:08;;;;;;;44.70;17.85;;;2.80;99.90;;;;;;5108281;27;20039;-78
2023/01/24 01:32:33;;;;;;;45.38;18.27;;;2.80;99.90;;;;;;5112068;27;20038;-78
2023/01/24 01:34:59;;;;;;;43.55;18.17;;;2.90;99.90;;;;;;5091373;27;20043;-77
2023/01/24 01:37:25;;;;;;;44.72;18.23;;;2.80;99.90;;;;;;5109748;27;20065;-78
2023/01/24 01:39:50;;;;;;;44.35;18.85;;;2.80;99.90;;;;;;5103153;27;20524;-78
2023/01/24 01:42:16;;;;;;;44.05;18.40;;;2.90;99.90;;;;;;5107603;27;20041;-77
2023/01/24 01:44:46;;;;;;;45.97;18.95;;;2.80;99.90;;;;;;5109253;27;20164;-78
2023/01/24 01:47:35;;;;;;;41.97;17.63;;;2.80;99.90;;;;;;5091968;27;20035;-77
2023/01/24 01:50:20;;;;;;;44.70;18.95;;;2.80;99.90;;;;;;5108169;27;20122;-78
2023/01/24 01:52:46;;;;;;;43.50;18.10;;;2.80;99.90;;;;;;5111803;27;20367;-78
2023/01/24 01:55:15;;;;;;;42.67;17.75;;;2.90;99.90;;;;;;5109346;27;20037;-79
2023/01/24 01:57:42;;;;;;;41.08;17.90;;;2.80;99.90;;;;;;5113699;27;20031;-78
2023/01/24 02:00:13;;;;;;;42.45;17.40;;;2.90;99.90;;;;;;5108988;27;20499;-77
2023/01/24 02:02:41;;;;;;;42.90;17.65;;;2.80;99.90;;;;;;5110033;27;20058;-77
2023/01/24 02:05:10;;;;;;;41.58;17.35;;;2.80;99.90;;;;;;5109799;27;20080;-79
2023/01/24 02:07:42;;;;;;;46.90;19.02;;;2.90;99.90;;;;;;5111634;27;20058;-77
2023/01/24 02:10:08;;;;;;;46.60;18.65;;;2.80;99.90;;;;;;5108237;27;20496;-77
2023/01/24 02:12:45;;;;;;;44.65;18.38;;;2.90;99.90;;;;;;5109579;27;20141;-77
2023/01/24 02:18:03;;;;;;;46.63;18.40;;;2.90;99.90;;;;;;5107761;27;20506;-78
2023/01/24 02:20:45;;;;;;;40.28;17.67;;;2.90;99.90;;;;;;5107613;27;20121;-77
2023/01/24 02:23:23;;;;;;;44.45;18.73;;;2.90;99.90;;;;;;5108830;27;20035;-77
2023/01/24 02:25:59;;;;;;;41.05;17.15;;;2.90;99.90;;;;;;5106151;27;20038;-78
2023/01/24 02:28:26;;;;;;;39.17;16.33;;;3.00;99.90;;;;;;5111195;27;20035;-77
2023/01/24 02:30:55;;;;;;;34.92;14.88;;;3.00;99.90;;;;;;5105493;27;20092;-76
2023/01/24 02:33:21;;;;;;;34.05;14.60;;;2.90;99.90;;;;;;5110161;27;20043;-75
2023/01/24 02:35:47;;;;;;;33.33;14.40;;;2.90;99.90;;;;;;5091519;27;20035;-75
2023/01/24 02:38:26;;;;;;;32.45;14.15;;;2.90;99.90;;;;;;5125230;27;20544;-78
2023/01/24 02:40:55;;;;;;;31.45;13.75;;;2.90;99.90;;;;;;5107108;27;20061;-76
2023/01/24 02:43:24;;;;;;;33.05;13.45;;;2.90;99.90;;;;;;5103841;27;20414;-76
2023/01/24 02:45:50;;;;;;;32.28;14.85;;;2.90;99.90;;;;;;5103127;27;20110;-76
2023/01/24 02:48:16;;;;;;;32.30;14.10;;;2.90;99.90;;;;;;5108754;27;20153;-78
2023/01/24 02:53:31;;;;;;;32.75;14.65;;;2.90;99.90;;;;;;5106722;27;20506;-77
2023/01/24 02:58:50;;;;;;;;;;;2.90;99.90;;;;;;5102875;27;20053;-78
2023/01/24 03:01:16;;;;;;;32.55;13.90;;;2.90;99.90;;;;;;5102621;27;19919;-78
2023/01/24 03:03:43;;;;;;;36.45;15.88;;;2.90;99.90;;;;;;5102846;27;20077;-78
2023/01/24 03:06:10;;;;;;;36.13;15.05;;;2.90;99.90;;;;;;5102602;27;20475;-78
2023/01/24 03:08:36;;;;;;;38.88;16.25;;;2.90;99.90;;;;;;5104260;27;20090;-77
2023/01/24 03:11:02;;;;;;;41.13;15.98;;;2.90;99.90;;;;;;5102155;27;20077;-77
2023/01/24 03:35:23;;;;;;;37.92;16.63;;;2.90;99.90;;;;;;5104191;27;20073;-76
2023/01/24 03:40:35;;;;;;;39.10;16.73;;;2.90;99.90;;;;;;5100572;27;20676;-77
2023/01/24 03:43:00;;;;;;;40.42;17.20;;;2.90;99.90;;;;;;5104324;27;20035;-73
2023/01/24 03:45:32;;;;;;;41.28;17.08;;;2.90;99.90;;;;;;5102509;27;20092;-77
2023/01/24 03:48:03;;;;;;;38.38;17.30;;;2.90;99.90;;;;;;5108369;27;20031;-76
2023/01/24 03:53:23;;;;;;;41.20;16.75;;;2.80;99.90;;;;;;5101240;27;20539;-77
2023/01/24 03:56:00;;;;;;;39.78;16.48;;;2.90;99.90;;;;;;5099542;27;20055;-77
2023/01/24 03:58:27;;;;;;;41.30;16.92;;;2.80;99.90;;;;;;5104905;27;20385;-77
2023/01/24 04:00:54;;;;;;;37.95;16.48;;;2.90;99.90;;;;;;5100342;27;20053;-76
2023/01/24 04:03:20;;;;;;;37.42;16.25;;;2.80;99.90;;;;;;5097353;27;20039;-78
2023/01/24 04:05:47;;;;;;;42.28;17.60;;;2.80;99.90;;;;;;5099631;27;20039;-78
2023/01/24 04:08:13;;;;;;;39.67;17.45;;;2.80;99.90;;;;;;5101438;27;20046;-78
2023/01/24 04:10:38;;;;;;;39.80;17.65;;;2.80;99.90;;;;;;5101549;27;20051;-75
2023/01/24 04:13:04;;;;;;;34.30;13.95;;;2.80;99.90;;;;;;5100814;27;20118;-72
2023/01/24 04:15:32;;;;;;;37.05;16.05;;;2.80;99.90;;;;;;5106527;27;20038;-75
2023/01/24 04:18:00;;;;;;;33.25;15.02;;;2.80;99.90;;;;;;5099410;27;20049;-76
2023/01/24 04:20:27;;;;;;;33.13;15.20;;;2.80;99.90;;;;;;5100813;27;20643;-72
2023/01/24 04:22:53;;;;;;;37.83;14.57;;;2.80;99.90;;;;;;5099785;27;20046;-75
2023/01/24 04:25:19;;;;;;;37.05;15.30;;;2.80;99.90;;;;;;5084598;27;20490;-76
2023/01/24 04:27:45;;;;;;;31.92;14.80;;;2.70;99.90;;;;;;5097292;27;20031;-76
2023/01/24 04:30:13;;;;;;;33.53;14.60;;;2.70;99.90;;;;;;5102022;27;20586;-76
2023/01/24 04:32:39;;;;;;;33.78;15.52;;;2.80;99.90;;;;;;5114684;27;20835;-77
2023/01/24 04:35:05;;;;;;;34.92;14.50;;;2.80;99.90;;;;;;5084719;27;20088;-77
2023/01/24 04:37:32;;;;;;;35.47;16.23;;;2.70;99.90;;;;;;5100593;27;20049;-77
2023/01/24 04:40:00;;;;;;;36.28;16.20;;;2.70;99.90;;;;;;5104305;27;20390;-78
2023/01/24 04:42:26;;;;;;;37.30;14.77;;;2.70;99.90;;;;;;5101767;27;20031;-74
2023/01/24 04:44:51;;;;;;;37.38;15.65;;;2.70;99.90;;;;;;5100479;27;20039;-75
2023/01/24 04:47:17;;;;;;;38.65;16.75;;;2.70;99.90;;;;;;5099342;27;20464;-77
2023/01/24 04:49:43;;;;;;;40.60;16.95;;;2.80;99.90;;;;;;5102403;27;20450;-74
2023/01/24 04:52:12;;;;;;;34.47;15.35;;;2.80;99.90;;;;;;5098340;27;20489;-73
2023/01/24 04:54:41;;;;;;;34.60;15.48;;;2.70;99.90;;;;;;5103567;27;20100;-76
2023/01/24 04:57:10;;;;;;;32.55;14.48;;;2.80;99.90;;;;;;5103055;27;20066;-77
2023/01/24 04:59:36;;;;;;;34.47;14.55;;;2.70;99.90;;;;;;5104196;27;20046;-77
2023/01/24 05:02:01;;;;;;;30.13;13.75;;;2.70;99.90;;;;;;5102854;27;20039;-78
2023/01/24 05:04:27;;;;;;;30.92;13.88;;;2.80;99.90;;;;;;5103934;27;20059;-78
2023/01/24 05:06:53;;;;;;;34.65;13.82;;;2.70;99.90;;;;;;5102434;27;20406;-78
2023/01/24 05:09:18;;;;;;;32.85;14.27;;;2.70;99.90;;;;;;5105501;27;20054;-75
2023/01/24 05:11:44;;;;;;;31.83;13.85;;;2.70;99.90;;;;;;5102906;27;20042;-75
2023/01/24 05:14:10;;;;;;;29.83;13.40;;;2.70;99.90;;;;;;5104325;27;20443;-75
2023/01/24 05:16:36;;;;;;;33.40;14.35;;;2.70;99.90;;;;;;5103152;27;20544;-76
2023/01/24 05:19:02;;;;;;;30.38;13.30;;;2.70;99.90;;;;;;5105062;27;20042;-77
2023/01/24 05:21:28;;;;;;;28.50;12.55;;;2.70;99.90;;;;;;5105597;27;20047;-73
2023/01/24 05:23:54;;;;;;;34.90;14.27;;;2.70;99.90;;;;;;5103993;27;20375;-76
2023/01/24 05:26:22;;;;;;;31.90;13.77;;;2.70;99.90;;;;;;5101376;27;20095;-75
2023/01/24 05:28:49;;;;;;;27.70;12.88;;;2.70;99.90;;;;;;5098826;27;20039;-77
2023/01/24 05:31:15;;;;;;;31.55;13.25;;;2.70;99.90;;;;;;5087207;27;20066;-77
2023/01/24 05:33:41;;;;;;;28.90;13.43;;;2.70;99.90;;;;;;5100936;27;20543;-75
2023/01/24 05:36:10;;;;;;;30.92;13.57;;;2.70;99.90;;;;;;5103401;27;20050;-72
2023/01/24 05:38:36;;;;;;;29.40;12.20;;;2.60;99.90;;;;;;5101321;27;20043;-73
2023/01/24 05:41:04;;;;;;;31.02;13.57;;;2.60;99.90;;;;;;5101415;27;20039;-77
2023/01/24 05:43:30;;;;;;;26.77;11.68;;;2.70;99.90;;;;;;5100286;27;20035;-74
2023/01/24 05:46:00;;;;;;;27.20;12.18;;;2.70;99.90;;;;;;5101127;27;20038;-74
2023/01/24 05:48:26;;;;;;;27.45;11.65;;;2.70;99.90;;;;;;5103407;27;20031;-73
2023/01/24 05:50:59;;;;;;;28.77;12.82;;;2.70;99.90;;;;;;5119425;27;20636;-72
2023/01/24 05:53:27;;;;;;;28.13;11.77;;;2.60;99.90;;;;;;5102626;27;20091;-74
2023/01/24 05:55:57;;;;;;;27.05;12.43;;;2.60;99.90;;;;;;5104510;27;22069;-75
2023/01/24 05:58:24;;;;;;;25.92;11.77;;;2.60;99.90;;;;;;5107977;27;20031;-77
2023/01/24 06:00:50;;;;;;;28.05;12.27;;;2.60;99.90;;;;;;5107392;27;20036;-75
2023/01/24 06:03:15;;;;;;;29.05;12.43;;;2.60;99.90;;;;;;5103309;27;20031;-77
2023/01/24 06:05:49;;;;;;;26.77;11.68;;;2.60;99.90;;;;;;5108694;27;20469;-77
2023/01/24 06:08:16;;;;;;;26.27;11.68;;;2.60;99.90;;;;;;5104977;27;20501;-77
2023/01/24 06:10:42;;;;;;;24.48;11.65;;;2.60;99.90;;;;;;5101418;27;20031;-76
2023/01/24 06:13:08;;;;;;;27.50;12.38;;;2.60;99.90;;;;;;5098621;27;20463;-76
2023/01/24 06:15:33;;;;;;;27.35;11.80;;;2.60;99.90;;;;;;5101569;27;20142;-76
2023/01/24 06:17:59;;;;;;;25.20;11.20;;;2.60;99.90;;;;;;5098897;27;20047;-75
2023/01/24 06:20:25;;;;;;;26.38;12.25;;;2.60;99.90;;;;;;5100751;27;20050;-75
2023/01/24 06:22:59;;;;;;;29.95;12.38;;;2.60;99.90;;;;;;5100917;27;20031;-76
2023/01/24 06:25:25;;;;;;;29.30;12.60;;;2.60;99.90;;;;;;5102547;27;20122;-75
2023/01/24 06:27:52;;;;;;;25.05;11.13;;;2.50;99.90;;;;;;5102195;27;20031;-77
2023/01/24 06:30:19;;;;;;;25.58;11.95;;;2.50;99.90;;;;;;5099845;27;20047;-76
2023/01/24 06:33:03;;;;;;;28.77;12.18;;;2.60;99.90;;;;;;5098404;27;20054;-75
2023/01/24 06:35:33;;;;;;;25.70;12.00;;;2.60;99.90;;;;;;5085579;27;20050;-75
2023/01/24 06:37:59;;;;;;;25.42;12.05;;;2.50;99.90;;;;;;5101254;27;20035;-76
2023/01/24 06:40:25;;;;;;;27.20;12.07;;;2.60;99.90;;;;;;5101073;27;20073;-76
2023/01/24 06:42:52;;;;;;;25.63;12.68;;;2.50;99.90;;;;;;5099491;27;20031;-76
2023/01/24 06:45:19;;;;;;;24.38;11.15;;;2.50;99.90;;;;;;5098523;27;20035;-76
2023/01/24 06:47:45;;;;;;;26.17;12.18;;;2.50;99.90;;;;;;5105885;27;20422;-76
2023/01/24 06:50:14;;;;;;;25.98;11.73;;;2.50;99.90;;;;;;5106822;27;20043;-75
2023/01/24 06:52:40;;;;;;;24.90;11.98;;;2.50;99.90;;;;;;5105348;27;20035;-74
2023/01/24 06:55:06;;;;;;;27.25;11.70;;;2.50;99.90;;;;;;5107082;27;20496;-70
2023/01/24 06:57:32;;;;;;;24.98;11.27;;;2.50;99.90;;;;;;5109760;27;20122;-74
2023/01/24 06:59:57;;;;;;;22.70;11.23;;;2.50;99.90;;;;;;5124165;27;20130;-71
2023/01/24 07:02:23;;;;;;;25.40;12.75;;;2.50;99.90;;;;;;5107368;27;20035;-75
2023/01/24 07:04:48;;;;;;;24.83;12.60;;;2.50;99.90;;;;;;5094265;28;20039;-74
2023/01/24 07:07:14;;;;;;;25.67;12.07;;;2.50;99.90;;;;;;5108632;27;20137;-72
2023/01/24 07:09:40;;;;;;;25.58;12.57;;;2.50;99.90;;;;;;5108733;27;20043;-75
2023/01/24 07:12:06;;;;;;;26.65;12.18;;;2.50;99.90;;;;;;5084606;27;20462;-74
2023/01/24 07:14:31;;;;;;;26.10;12.35;;;2.50;99.90;;;;;;5095686;27;20088;-74
2023/01/24 07:16:57;;;;;;;25.23;12.38;;;2.50;99.90;;;;;;5101230;27;20076;-74
2023/01/24 07:19:25;;;;;;;26.42;12.20;;;2.50;99.90;;;;;;5106937;27;20035;-73
2023/01/24 07:21:53;;;;;;;25.65;12.85;;;2.50;99.90;;;;;;5107893;27;20031;-75
2023/01/24 07:24:22;;;;;;;26.90;12.25;;;2.40;99.90;;;;;;5104175;27;20056;-75
2023/01/24 07:26:50;;;;;;;27.60;12.13;;;2.40;99.90;;;;;;5099801;27;20027;-76
2023/01/24 07:29:17;;;;;;;26.90;12.75;;;2.50;99.90;;;;;;5086625;27;20046;-74
2023/01/24 07:31:42;;;;;;;28.88;12.85;;;2.40;99.90;;;;;;5107403;27;20118;-76
2023/01/24 07:34:08;;;;;;;28.23;13.25;;;2.40;99.90;;;;;;5099125;27;20126;-75
2023/01/24 07:36:34;;;;;;;26.42;12.02;;;2.40;99.90;;;;;;5095175;27;20027;-77
2023/01/24 07:38:59;;;;;;;27.30;11.88;;;2.40;99.90;;;;;;5104609;27;20035;-76
2023/01/24 07:41:25;;;;;;;27.40;12.23;;;2.40;99.90;;;;;;5093798;27;20037;-75
2023/01/24 07:43:50;;;;;;;28.65;12.68;;;2.50;99.90;;;;;;5109217;27;20489;-76
2023/01/24 07:46:16;;;;;;;27.17;12.43;;;2.40;99.90;;;;;;5110270;27;20425;-75
2023/01/24 07:48:42;;;;;;;30.27;13.30;;;2.50;99.90;;;;;;5104141;27;20043;-76
2023/01/24 07:51:09;;;;;;;26.83;12.45;;;2.50;99.90;;;;;;5102362;27;20499;-76
2023/01/24 07:53:35;;;;;;;24.60;12.43;;;2.40;99.90;;;;;;5105526;27;20061;-76
2023/01/24 07:56:01;;;;;;;28.40;13.40;;;2.50;99.90;;;;;;5108270;27;20151;-74
2023/01/24 07:58:28;;;;;;;28.30;12.35;;;2.50;99.90;;;;;;5108677;27;20050;-76
2023/01/24 08:00:54;;;;;;;29.58;13.07;;;2.50;99.90;;;;;;5108258;27;20035;-74
2023/01/24 08:03:20;;;;;;;25.13;12.15;;;2.40;99.90;;;;;;5110220;27;20495;-76
2023/01/24 08:05:45;;;;;;;27.60;12.55;;;2.40;99.90;;;;;;5092249;27;20118;-77
2023/01/24 08:08:11;;;;;;;24.38;11.30;;;2.40;99.90;;;;;;5106587;28;20053;-71
2023/01/24 08:10:37;;;;;;;26.48;12.18;;;2.40;99.90;;;;;;5131976;27;20100;-73
2023/01/24 08:13:02;;;;;;;24.77;12.35;;;2.40;99.90;;;;;;5104374;27;20050;-72
2023/01/24 08:15:28;;;;;;;27.70;13.15;;;2.40;99.90;;;;;;5098952;27;20199;-73
2023/01/24 08:17:53;;;;;;;24.88;12.38;;;2.40;99.90;;;;;;5103366;27;20043;-71
2023/01/24 08:20:19;;;;;;;26.52;12.20;;;2.50;99.90;;;;;;5099415;27;20485;-72
2023/01/24 08:22:45;;;;;;;29.08;13.05;;;2.40;99.90;;;;;;5104445;27;20035;-71
2023/01/24 08:25:10;;;;;;;27.98;13.05;;;2.50;99.90;;;;;;5105626;27;21207;-72
2023/01/24 08:27:40;;;;;;;27.98;13.60;;;2.40;99.90;;;;;;5097191;27;20043;-74
2023/01/24 08:30:07;;;;;;;28.60;13.68;;;2.50;99.90;;;;;;5111741;28;20393;-74
2023/01/24 08:32:33;;;;;;;28.30;13.55;;;2.40;99.90;;;;;;5108589;27;20050;-75
2023/01/24 08:34:59;;;;;;;29.23;13.93;;;2.50;99.90;;;;;;5101661;28;20043;-71
2023/01/24 08:37:24;;;;;;;33.38;13.90;;;2.50;99.90;;;;;;5109749;28;20125;-74
2023/01/24 08:39:50;;;;;;;26.27;13.18;;;2.50;99.90;;;;;;5106354;28;20063;-73
2023/01/24 08:42:15;;;;;;;26.88;13.15;;;2.50;99.90;;;;;;5126607;27;20096;-75
2023/01/24 08:44:41;;;;;;;30.58;13.77;;;2.50;99.90;;;;;;5111788;28;20158;-75
2023/01/24 08:47:07;;;;;;;29.45;14.02;;;2.50;99.90;;;;;;5105419;28;20035;-73
2023/01/24 08:49:32;;;;;;;29.48;13.18;;;2.50;99.90;;;;;;5108906;28;20040;-74
2023/01/24 08:51:58;;;;;;;32.28;14.32;;;2.50;99.90;;;;;;5092118;28;20451;-74
2023/01/24 08:54:28;;;;;;;31.20;14.20;;;2.60;99.90;;;;;;5103976;28;20051;-72
2023/01/24 08:56:54;;;;;;;26.88;13.27;;;2.60;99.90;;;;;;5110515;28;20046;-75
2023/01/24 08:59:20;;;;;;;29.58;13.48;;;2.60;99.90;;;;;;5098906;28;20431;-75
2023/01/24 09:01:46;;;;;;;28.75;13.68;;;2.60;99.90;;;;;;5106149;28;20608;-72
2023/01/24 09:04:12;;;;;;;26.65;13.38;;;2.60;99.90;;;;;;5102135;28;20225;-71
2023/01/24 09:06:37;;;;;;;29.98;13.43;;;2.60;99.90;;;;;;5106633;28;20038;-75
2023/01/24 09:09:03;;;;;;;30.52;14.30;;;2.70;99.90;;;;;;5105337;28;20114;-75
2023/01/24 09:11:30;;;;;;;28.50;13.70;;;2.60;99.90;;;;;;5089693;28;20399;-73
2023/01/24 09:13:56;;;;;;;28.20;13.60;;;2.60;99.90;;;;;;5121148;27;20088;-72
2023/01/24 09:16:21;;;;;;;32.10;14.57;;;2.60;99.90;;;;;;5101666;28;20575;-73
2023/01/24 09:18:49;;;;;;;30.92;14.52;;;2.60;99.90;;;;;;5104558;28;20031;-72
2023/01/24 09:21:15;;;;;;;28.52;14.82;;;2.70;99.90;;;;;;5105023;28;20039;-72
2023/01/24 09:23:40;;;;;;;27.58;13.32;;;2.60;99.90;;;;;;5105941;28;20394;-73
2023/01/24 09:26:06;;;;;;;30.40;14.82;;;2.70;99.90;;;;;;5106400;28;20067;-76
2023/01/24 09:28:33;;;;;;;26.58;13.95;;;2.70;99.90;;;;;;5105438;28;20035;-75
2023/01/24 09:31:00;;;;;;;28.00;13.93;;;2.60;99.90;;;;;;5103339;28;20053;-76
2023/01/24 09:33:25;;;;;;;31.00;14.55;;;2.70;99.90;;;;;;5102520;28;20066;-74
2023/01/24 09:35:53;;;;;;;27.08;13.98;;;2.70;99.90;;;;;;5106213;28;20035;-75
2023/01/24 09:38:19;;;;;;;30.63;14.52;;;2.60;99.90;;;;;;5094425;27;20134;-72
2023/01/24 09:41:09;;;;;;;29.70;14.23;;;2.60;99.90;;;;;;5111861;28;20043;-75
2023/01/24 09:43:45;;;;;;;32.03;15.38;;;2.60;99.90;;;;;;5075996;28;20385;-75
2023/01/24 09:46:37;;;;;;;29.33;14.80;;;2.60;99.90;;;;;;5107508;27;20051;-74
2023/01/24 09:49:21;;;;;;;29.70;14.18;;;2.60;99.90;;;;;;5106391;27;20438;-73
2023/01/24 09:51:52;;;;;;;31.20;13.48;;;2.60;99.90;;;;;;5115722;27;20049;-75
2023/01/24 09:54:52;;;;;;;27.42;13.45;;;2.60;99.90;;;;;;5104517;27;20032;-76
2023/01/24 09:57:29;;;;;;;32.90;15.20;;;2.60;99.90;;;;;;5079933;27;20040;-74
2023/01/24 10:00:10;;;;;;;29.35;14.73;;;2.60;99.90;;;;;;5109255;27;20050;-72
2023/01/24 10:02:36;;;;;;;30.10;15.05;;;2.60;99.90;;;;;;5101668;27;20031;-75
2023/01/24 10:05:01;;;;;;;26.00;13.98;;;2.50;99.90;;;;;;5105407;27;20050;-72
2023/01/24 10:07:43;;;;;;;30.17;15.40;;;2.60;99.90;;;;;;5112306;28;20529;-74
2023/01/24 10:10:17;;;;;;;29.55;14.43;;;2.50;99.90;;;;;;5105824;27;20081;-78
2023/01/24 10:13:02;;;;;;;31.83;16.02;;;2.60;99.90;;;;;;5113669;27;20520;-75
2023/01/24 10:15:39;;;;;;;28.73;14.77;;;2.60;99.90;;;;;;5105119;27;20294;-75
2023/01/24 10:18:42;;;;;;;30.88;14.70;;;2.60;99.90;;;;;;5109809;27;20454;-75
2023/01/24 10:21:29;;;;;;;30.00;14.65;;;2.60;99.90;;;;;;5104629;27;20089;-77
2023/01/24 10:24:01;;;;;;;28.95;15.05;;;2.60;99.90;;;;;;5128431;27;20046;-75
2023/01/24 10:26:29;;;;;;;27.48;14.05;;;2.60;99.90;;;;;;5118901;27;20149;-75
2023/01/24 10:28:59;;;;;;;32.15;15.85;;;2.60;99.90;;;;;;5106600;27;20040;-76
2023/01/24 10:31:53;;;;;;;31.60;15.80;;;2.60;99.90;;;;;;5113476;27;20051;-75
2023/01/24 10:34:28;;;;;;;28.52;15.02;;;2.70;99.90;;;;;;5107871;27;20200;-77
2023/01/24 10:37:05;;;;;;;31.67;15.10;;;2.70;99.90;;;;;;5107956;27;20044;-76
2023/01/24 10:39:31;;;;;;;32.28;15.90;;;2.70;99.90;;;;;;5091333;27;20141;-75
2023/01/24 10:41:56;;;;;;;32.38;16.05;;;2.80;99.90;;;;;;5109551;27;21001;-75
2023/01/24 10:44:34;;;;;;;31.38;15.65;;;2.80;99.90;;;;;;5109158;28;20127;-77
2023/01/24 10:47:09;;;;;;;29.55;15.63;;;2.80;99.90;;;;;;5102626;28;20036;-74
2023/01/24 10:49:38;;;;;;;32.85;15.57;;;2.90;99.90;;;;;;5107164;27;20379;-73
2023/01/24 10:52:14;;;;;;;28.80;15.27;;;2.90;99.90;;;;;;5106148;27;20039;-76
2023/01/24 10:54:47;;;;;;;32.58;15.57;;;2.90;99.90;;;;;;5109757;27;20044;-76
2023/01/24 10:57:30;;;;;;;29.05;14.98;;;2.80;99.90;;;;;;5113137;27;20427;-74
2023/01/24 11:00:19;;;;;;;28.17;14.55;;;2.80;99.90;;;;;;5108568;27;20040;-77
2023/01/24 11:02:52;;;;;;;28.67;15.32;;;2.80;99.90;;;;;;5108103;27;20056;-75
2023/01/24 11:05:19;;;;;;;30.98;15.43;;;2.80;99.90;;;;;;5107196;27;20062;-79
2023/01/24 11:08:00;;;;;;;30.40;15.95;;;2.80;99.90;;;;;;5112556;27;20066;-71
2023/01/24 11:10:34;;;;;;;30.98;15.93;;;2.80;99.90;;;;;;5118554;27;20039;-76
2023/01/24 11:13:02;;;;;;;29.63;15.93;;;2.90;99.90;;;;;;5104501;27;21142;-72
2023/01/24 11:15:31;;;;;;;31.90;15.90;;;2.90;99.90;;;;;;5106471;27;20035;-75
2023/01/24 11:18:18;;;;;;;30.60;15.63;;;2.90;99.90;;;;;;5104267;27;20051;-75
2023/01/24 11:20:44;;;;;;;32.00;15.75;;;3.00;99.90;;;;;;5108381;27;20046;-75
2023/01/24 11:23:11;;;;;;;32.13;16.48;;;3.00;99.90;;;;;;5107584;27;20036;-76
2023/01/24 11:25:58;;;;;;;33.25;16.50;;;3.00;99.90;;;;;;5114040;27;20483;-74
2023/01/24 11:28:36;;;;;;;29.77;15.73;;;3.00;99.90;;;;;;5111447;27;20035;-73
2023/01/24 11:31:23;;;;;;;29.48;14.98;;;3.00;99.90;;;;;;5113657;27;20051;-73
2023/01/24 11:34:15;;;;;;;32.60;16.00;;;3.00;99.90;;;;;;5103824;27;20493;-72
2023/01/24 11:36:59;;;;;;;28.00;14.88;;;3.00;99.90;;;;;;5112677;27;20119;-73
2023/01/24 11:39:31;;;;;;;29.80;14.68;;;3.00;99.90;;;;;;5113257;27;20089;-78
2023/01/24 11:42:16;;;;;;;28.48;14.85;;;3.00;99.90;;;;;;5096312;28;20383;-75
2023/01/24 11:45:09;;;;;;;27.25;14.82;;;3.00;99.90;;;;;;5101207;27;20123;-73
2023/01/24 11:47:46;;;;;;;30.63;15.15;;;3.00;99.90;;;;;;5106378;27;20042;-79
2023/01/24 11:50:45;;;;;;;28.17;14.82;;;3.00;99.90;;;;;;5099039;27;20058;-77
2023/01/24 11:53:34;;;;;;;28.20;14.38;;;3.00;99.90;;;;;;5098157;27;20081;-73
2023/01/24 11:56:12;;;;;;;26.50;14.40;;;3.00;99.90;;;;;;5104896;27;20051;-75
2023/01/24 11:58:57;;;;;;;27.33;14.85;;;3.00;99.90;;;;;;5106218;27;20375;-73
2023/01/24 12:01:48;;;;;;;28.35;15.00;;;2.90;99.90;;;;;;5103681;27;20084;-72
2023/01/24 12:04:45;;;;;;;27.48;14.10;;;2.90;99.90;;;;;;5107034;27;20167;-71
2023/01/24 12:07:28;;;;;;;28.95;14.88;;;2.80;99.90;;;;;;5101410;28;20042;-75
2023/01/24 12:10:24;;;;;;;27.65;13.80;;;2.80;99.90;;;;;;5102464;27;20503;-72
2023/01/24 12:13:08;;;;;;;27.83;14.30;;;2.80;99.90;;;;;;5106321;27;20039;-73
2023/01/24 12:15:38;;;;;;;27.92;13.98;;;2.80;99.90;;;;;;5106713;27;20039;-73
2023/01/24 12:18:33;;;;;;;28.00;14.25;;;2.90;99.90;;;;;;5100532;27;20047;-72
2023/01/24 12:21:09;;;;;;;28.25;14.75;;;2.80;99.90;;;;;;5085353;28;20052;-74
2023/01/24 12:23:53;;;;;;;26.23;13.90;;;2.90;99.90;;;;;;5109595;27;20660;-74
2023/01/24 12:26:32;;;;;;;28.08;14.18;;;2.90;99.90;;;;;;5111889;27;20043;-75
2023/01/24 12:29:03;;;;;;;26.83;13.63;;;2.90;99.90;;;;;;5105204;28;20506;-72
2023/01/24 12:31:45;;;;;;;27.83;14.60;;;3.00;99.90;;;;;;5092734;28;20089;-73
2023/01/24 12:34:38;;;;;;;27.97;14.23;;;3.00;99.90;;;;;;5107887;28;20123;-75
2023/01/24 12:37:19;;;;;;;;;;;3.00;99.90;;;;;;5097009;28;20043;-73
2023/01/24 12:40:13;;;;;;;25.33;12.82;;;3.00;99.90;;;;;;5098730;28;19928;-72
2023/01/24 12:42:50;;;;;;;27.88;13.23;;;3.00;99.90;;;;;;5075684;28;20072;-75
2023/01/24 12:45:36;;;;;;;28.10;14.48;;;2.90;99.90;;;;;;5095267;28;20123;-74
2023/01/24 12:48:29;;;;;;;27.80;14.48;;;2.90;99.90;;;;;;5101487;28;20053;-75
2023/01/24 12:51:13;;;;;;;29.33;15.00;;;2.90;99.90;;;;;;5096243;28;20042;-75
2023/01/24 12:53:55;;;;;;;31.13;15.13;;;2.90;99.90;;;;;;5110980;27;20160;-72
2023/01/24 12:56:46;;;;;;;25.58;13.43;;;2.90;99.90;;;;;;5112687;28;20153;-71
2023/01/24 12:59:13;;;;;;;27.17;14.18;;;2.90;99.90;;;;;;5096796;28;20091;-72
2023/01/24 13:02:02;;;;;;;25.63;14.32;;;2.90;99.90;;;;;;5101709;28;20754;-72
2023/01/24 13:04:42;;;;;;;26.15;13.82;;;3.00;99.90;;;;;;5099413;28;20083;-63
2023/01/24 13:07:21;;;;;;;25.17;13.13;;;3.00;99.90;;;;;;5120439;28;20039;-62
2023/01/24 13:10:19;;;;;;;25.95;13.70;;;3.00;99.90;;;;;;5114925;27;20134;-62
2023/01/24 13:12:45;;;;;;;29.60;14.32;;;2.90;99.90;;;;;;5100767;28;20493;-63
2023/01/24 13:15:23;;;;;;;26.40;14.27;;;2.90;99.90;;;;;;5099977;28;20047;-62
2023/01/24 13:18:23;;;;;;;26.83;13.50;;;2.90;99.90;;;;;;5120249;28;20042;-63
2023/01/24 13:21:00;;;;;;;25.52;13.30;;;2.80;99.90;;;;;;5119347;27;20485;-63
2023/01/24 13:23:48;;;;;;;26.50;13.98;;;2.90;99.90;;;;;;5123602;27;20146;-63
2023/01/24 13:26:35;;;;;;;26.98;13.68;;;2.90;99.90;;;;;;5122878;27;20042;-62
2023/01/24 13:29:30;;;;;;;26.92;14.00;;;2.80;99.90;;;;;;5102597;27;20039;-62
2023/01/24 13:32:06;;;;;;;33.38;15.63;;;2.90;99.90;;;;;;5097167;27;20244;-62